メインページ
METAR-TAF:

METAR-TAF

空港 :

ヌメア国際空港, ニューカレドニア

緯度: 22-01S, 経度: 166-13E, 海抜: 16m

現時点の気象観測

当レポートは24分前の03:30(UTC)に作成
南東の風 4kt、北/北東からの間で変化する
気温 31°C
湿度 49%
気圧 1012 hPa
視程10km以上
高度5800ftの雲はほとんどない
高度24000ftの雲は散在している

METAR: NWWW 250330Z AUTO 14004KT 030V190 9999 FEW058 SCT240 31/19 Q1012 NOSIG

時間: 14:54 (03:54 UTC)

予報

当レポートは4時間54分前の23:00(UTC)に作成
予報は25日の 00時(UTC)から 25日の 24時(UTC)まで有効
の風 8kt
視程10km以上
高度4000ftの雲はほとんどない

TAF: NWWW 242300Z 2500/2524 19008KT 9999 FEW040

4,000以上の空港の気象観測と天気予報(METAR報とTAF報)

利用可能な観測所は地図上に黄色い丸と赤い丸で示す。

丸の上にカーソルを重ねると観測所名を参照できる。

次にクリックすると気象観測と天気予報を参照できる。

マップの切り替え:黒色「×」印の緑ボタンをクリックして拡大、「-」印の緑ボタンをクリックして縮小、緑色の三角印をクリックして隣りの地図に切り替え


METAR-TAF: